sensor_id;sensor_type;location;lat;lon;timestamp;P1;durP1;ratioP1;P2;durP2;ratioP2
25752;SDS011;13600;50.816;4.416;2023-09-19T00:01:08;18.35;;;2.65;;
25752;SDS011;13600;50.816;4.416;2023-09-19T00:03:34;16.63;;;2.65;;
25752;SDS011;13600;50.816;4.416;2023-09-19T00:06:04;16.92;;;2.38;;
25752;SDS011;13600;50.816;4.416;2023-09-19T00:08:32;15.35;;;2.20;;
25752;SDS011;13600;50.816;4.416;2023-09-19T00:10:58;12.88;;;2.40;;
25752;SDS011;13600;50.816;4.416;2023-09-19T00:13:31;14.07;;;2.55;;
25752;SDS011;13600;50.816;4.416;2023-09-19T00:15:58;18.58;;;2.45;;
25752;SDS011;13600;50.816;4.416;2023-09-19T00:18:25;16.38;;;2.78;;
25752;SDS011;13600;50.816;4.416;2023-09-19T00:20:57;15.65;;;2.67;;
25752;SDS011;13600;50.816;4.416;2023-09-19T00:23:23;16.60;;;2.63;;
25752;SDS011;13600;50.816;4.416;2023-09-19T00:25:50;19.35;;;2.72;;
25752;SDS011;13600;50.816;4.416;2023-09-19T00:28:16;13.00;;;2.10;;
25752;SDS011;13600;50.816;4.416;2023-09-19T00:30:45;16.52;;;2.60;;
25752;SDS011;13600;50.816;4.416;2023-09-19T00:33:15;15.27;;;2.38;;
25752;SDS011;13600;50.816;4.416;2023-09-19T00:35:50;14.50;;;2.53;;
25752;SDS011;13600;50.816;4.416;2023-09-19T00:38:20;15.15;;;2.67;;
25752;SDS011;13600;50.816;4.416;2023-09-19T00:40:48;17.45;;;2.17;;
25752;SDS011;13600;50.816;4.416;2023-09-19T00:43:15;9.23;;;2.22;;
25752;SDS011;13600;50.816;4.416;2023-09-19T00:45:42;16.05;;;2.75;;
25752;SDS011;13600;50.816;4.416;2023-09-19T00:48:09;14.32;;;2.80;;
25752;SDS011;13600;50.816;4.416;2023-09-19T00:50:35;17.83;;;2.80;;
25752;SDS011;13600;50.816;4.416;2023-09-19T00:53:01;15.02;;;2.30;;
25752;SDS011;13600;50.816;4.416;2023-09-19T00:55:33;19.13;;;2.80;;
25752;SDS011;13600;50.816;4.416;2023-09-19T00:57:59;18.23;;;3.35;;
25752;SDS011;13600;50.816;4.416;2023-09-19T01:00:26;13.45;;;2.35;;
25752;SDS011;13600;50.816;4.416;2023-09-19T01:02:52;14.05;;;2.65;;
25752;SDS011;13600;50.816;4.416;2023-09-19T01:05:19;14.20;;;2.53;;
25752;SDS011;13600;50.816;4.416;2023-09-19T01:07:44;19.02;;;3.00;;
25752;SDS011;13600;50.816;4.416;2023-09-19T01:10:14;15.93;;;2.40;;
25752;SDS011;13600;50.816;4.416;2023-09-19T01:22:21;19.77;;;2.90;;
25752;SDS011;13600;50.816;4.416;2023-09-19T01:30:10;24.10;;;2.80;;
25752;SDS011;13600;50.816;4.416;2023-09-19T01:32:39;16.27;;;2.97;;
25752;SDS011;13600;50.816;4.416;2023-09-19T01:35:06;18.83;;;2.65;;
25752;SDS011;13600;50.816;4.416;2023-09-19T01:37:37;12.77;;;3.15;;
25752;SDS011;13600;50.816;4.416;2023-09-19T01:40:04;19.25;;;2.78;;
25752;SDS011;13600;50.816;4.416;2023-09-19T01:51:49;20.88;;;2.92;;
25752;SDS011;13600;50.816;4.416;2023-09-19T01:54:30;17.65;;;2.45;;
25752;SDS011;13600;50.816;4.416;2023-09-19T01:59:37;25.63;;;2.90;;
25752;SDS011;13600;50.816;4.416;2023-09-19T02:02:10;15.93;;;2.90;;
25752;SDS011;13600;50.816;4.416;2023-09-19T02:04:37;17.80;;;3.03;;
25752;SDS011;13600;50.816;4.416;2023-09-19T02:07:03;19.00;;;3.08;;
25752;SDS011;13600;50.816;4.416;2023-09-19T02:09:30;21.42;;;2.55;;
25752;SDS011;13600;50.816;4.416;2023-09-19T02:11:59;12.20;;;2.42;;
25752;SDS011;13600;50.816;4.416;2023-09-19T02:14:25;19.33;;;2.88;;
25752;SDS011;13600;50.816;4.416;2023-09-19T02:16:50;20.95;;;2.70;;
25752;SDS011;13600;50.816;4.416;2023-09-19T02:19:16;20.40;;;2.90;;
25752;SDS011;13600;50.816;4.416;2023-09-19T02:21:42;17.23;;;2.85;;
25752;SDS011;13600;50.816;4.416;2023-09-19T02:24:08;18.00;;;2.80;;
25752;SDS011;13600;50.816;4.416;2023-09-19T02:26:35;20.70;;;2.63;;
25752;SDS011;13600;50.816;4.416;2023-09-19T02:29:02;22.40;;;2.88;;
25752;SDS011;13600;50.816;4.416;2023-09-19T02:31:30;17.85;;;2.88;;
25752;SDS011;13600;50.816;4.416;2023-09-19T02:33:56;15.93;;;2.75;;
25752;SDS011;13600;50.816;4.416;2023-09-19T02:36:21;18.50;;;3.15;;
25752;SDS011;13600;50.816;4.416;2023-09-19T02:38:48;18.85;;;2.75;;
25752;SDS011;13600;50.816;4.416;2023-09-19T02:41:14;20.17;;;3.35;;
25752;SDS011;13600;50.816;4.416;2023-09-19T02:43:40;17.00;;;3.38;;
25752;SDS011;13600;50.816;4.416;2023-09-19T02:46:07;17.27;;;2.95;;
25752;SDS011;13600;50.816;4.416;2023-09-19T02:48:34;15.85;;;2.90;;
25752;SDS011;13600;50.816;4.416;2023-09-19T02:51:01;23.05;;;3.10;;
25752;SDS011;13600;50.816;4.416;2023-09-19T02:53:28;15.40;;;3.33;;
25752;SDS011;13600;50.816;4.416;2023-09-19T02:55:55;20.17;;;3.28;;
25752;SDS011;13600;50.816;4.416;2023-09-19T02:58:21;17.70;;;3.15;;
25752;SDS011;13600;50.816;4.416;2023-09-19T03:00:48;24.02;;;3.15;;
25752;SDS011;13600;50.816;4.416;2023-09-19T03:03:15;17.73;;;2.63;;
25752;SDS011;13600;50.816;4.416;2023-09-19T03:05:43;13.07;;;2.47;;
25752;SDS011;13600;50.816;4.416;2023-09-19T03:08:15;19.42;;;2.90;;
25752;SDS011;13600;50.816;4.416;2023-09-19T03:10:41;18.15;;;3.03;;
25752;SDS011;13600;50.816;4.416;2023-09-19T03:13:07;15.95;;;2.90;;
25752;SDS011;13600;50.816;4.416;2023-09-19T03:15:35;20.40;;;2.88;;
25752;SDS011;13600;50.816;4.416;2023-09-19T03:18:04;18.48;;;3.20;;
25752;SDS011;13600;50.816;4.416;2023-09-19T03:20:30;15.50;;;2.40;;
25752;SDS011;13600;50.816;4.416;2023-09-19T03:22:55;16.67;;;2.85;;
25752;SDS011;13600;50.816;4.416;2023-09-19T03:25:22;16.15;;;2.55;;
25752;SDS011;13600;50.816;4.416;2023-09-19T03:27:48;17.30;;;2.97;;
25752;SDS011;13600;50.816;4.416;2023-09-19T03:30:14;15.45;;;2.53;;
25752;SDS011;13600;50.816;4.416;2023-09-19T03:32:46;18.40;;;2.50;;
25752;SDS011;13600;50.816;4.416;2023-09-19T03:35:14;13.95;;;2.75;;
25752;SDS011;13600;50.816;4.416;2023-09-19T03:37:41;18.55;;;2.70;;
25752;SDS011;13600;50.816;4.416;2023-09-19T03:40:08;18.52;;;2.88;;
25752;SDS011;13600;50.816;4.416;2023-09-19T03:42:37;17.55;;;2.80;;
25752;SDS011;13600;50.816;4.416;2023-09-19T03:45:07;15.90;;;2.55;;
25752;SDS011;13600;50.816;4.416;2023-09-19T03:47:37;15.05;;;2.53;;
25752;SDS011;13600;50.816;4.416;2023-09-19T03:50:04;21.67;;;3.20;;
25752;SDS011;13600;50.816;4.416;2023-09-19T03:52:32;21.23;;;3.10;;
25752;SDS011;13600;50.816;4.416;2023-09-19T03:54:58;18.00;;;3.13;;
25752;SDS011;13600;50.816;4.416;2023-09-19T03:57:23;17.48;;;2.92;;
25752;SDS011;13600;50.816;4.416;2023-09-19T03:59:50;19.50;;;2.80;;
25752;SDS011;13600;50.816;4.416;2023-09-19T04:02:18;18.15;;;2.83;;
25752;SDS011;13600;50.816;4.416;2023-09-19T04:04:48;18.02;;;2.72;;
25752;SDS011;13600;50.816;4.416;2023-09-19T04:07:13;24.40;;;3.38;;
25752;SDS011;13600;50.816;4.416;2023-09-19T04:09:39;20.05;;;3.30;;
25752;SDS011;13600;50.816;4.416;2023-09-19T04:12:05;15.85;;;2.95;;
25752;SDS011;13600;50.816;4.416;2023-09-19T04:14:34;18.75;;;3.05;;
25752;SDS011;13600;50.816;4.416;2023-09-19T04:16:59;17.05;;;2.58;;
25752;SDS011;13600;50.816;4.416;2023-09-19T04:19:25;10.73;;;2.35;;
25752;SDS011;13600;50.816;4.416;2023-09-19T04:21:51;19.25;;;3.00;;
25752;SDS011;13600;50.816;4.416;2023-09-19T04:24:17;16.55;;;2.55;;
25752;SDS011;13600;50.816;4.416;2023-09-19T04:26:44;15.88;;;2.35;;
25752;SDS011;13600;50.816;4.416;2023-09-19T04:29:13;17.45;;;2.47;;
25752;SDS011;13600;50.816;4.416;2023-09-19T04:31:46;14.07;;;2.90;;
25752;SDS011;13600;50.816;4.416;2023-09-19T04:34:12;18.48;;;2.45;;
25752;SDS011;13600;50.816;4.416;2023-09-19T04:36:42;12.70;;;2.42;;
25752;SDS011;13600;50.816;4.416;2023-09-19T04:39:09;15.98;;;2.42;;
25752;SDS011;13600;50.816;4.416;2023-09-19T04:41:36;15.68;;;2.67;;
25752;SDS011;13600;50.816;4.416;2023-09-19T04:44:08;16.20;;;2.75;;
25752;SDS011;13600;50.816;4.416;2023-09-19T04:46:34;17.90;;;3.00;;
25752;SDS011;13600;50.816;4.416;2023-09-19T04:49:00;18.27;;;2.90;;
25752;SDS011;13600;50.816;4.416;2023-09-19T04:51:26;13.60;;;2.53;;
25752;SDS011;13600;50.816;4.416;2023-09-19T04:53:54;20.40;;;2.70;;
25752;SDS011;13600;50.816;4.416;2023-09-19T04:56:20;14.15;;;2.20;;
25752;SDS011;13600;50.816;4.416;2023-09-19T04:58:46;16.40;;;2.97;;
25752;SDS011;13600;50.816;4.416;2023-09-19T05:01:11;25.00;;;2.67;;
25752;SDS011;13600;50.816;4.416;2023-09-19T05:03:40;17.98;;;3.13;;
25752;SDS011;13600;50.816;4.416;2023-09-19T05:06:05;12.95;;;3.20;;
25752;SDS011;13600;50.816;4.416;2023-09-19T05:08:31;22.92;;;3.00;;
25752;SDS011;13600;50.816;4.416;2023-09-19T05:10:57;17.85;;;2.75;;
25752;SDS011;13600;50.816;4.416;2023-09-19T05:13:22;17.30;;;2.85;;
25752;SDS011;13600;50.816;4.416;2023-09-19T05:15:49;21.05;;;2.75;;
25752;SDS011;13600;50.816;4.416;2023-09-19T05:18:18;18.58;;;2.92;;
25752;SDS011;13600;50.816;4.416;2023-09-19T05:20:43;18.52;;;3.08;;
25752;SDS011;13600;50.816;4.416;2023-09-19T05:23:09;15.18;;;2.70;;
25752;SDS011;13600;50.816;4.416;2023-09-19T05:25:38;17.13;;;2.38;;
25752;SDS011;13600;50.816;4.416;2023-09-19T05:28:10;16.27;;;2.55;;
25752;SDS011;13600;50.816;4.416;2023-09-19T05:30:40;15.43;;;2.88;;
25752;SDS011;13600;50.816;4.416;2023-09-19T05:33:08;20.30;;;3.28;;
25752;SDS011;13600;50.816;4.416;2023-09-19T05:35:34;17.45;;;2.78;;
25752;SDS011;13600;50.816;4.416;2023-09-19T05:38:04;16.95;;;2.88;;
25752;SDS011;13600;50.816;4.416;2023-09-19T05:40:34;23.38;;;3.03;;
25752;SDS011;13600;50.816;4.416;2023-09-19T05:43:00;17.63;;;2.65;;
25752;SDS011;13600;50.816;4.416;2023-09-19T05:45:26;20.15;;;3.00;;
25752;SDS011;13600;50.816;4.416;2023-09-19T05:47:52;22.23;;;2.60;;
25752;SDS011;13600;50.816;4.416;2023-09-19T05:52:52;22.33;;;3.00;;
25752;SDS011;13600;50.816;4.416;2023-09-19T05:55:18;20.92;;;2.90;;
25752;SDS011;13600;50.816;4.416;2023-09-19T05:57:54;17.98;;;2.92;;
25752;SDS011;13600;50.816;4.416;2023-09-19T06:00:20;20.17;;;3.15;;
25752;SDS011;13600;50.816;4.416;2023-09-19T06:02:56;21.33;;;2.70;;
25752;SDS011;13600;50.816;4.416;2023-09-19T06:05:23;26.95;;;2.83;;
25752;SDS011;13600;50.816;4.416;2023-09-19T06:07:52;14.75;;;2.40;;
25752;SDS011;13600;50.816;4.416;2023-09-19T06:10:18;14.90;;;2.22;;
25752;SDS011;13600;50.816;4.416;2023-09-19T06:12:48;18.05;;;2.80;;
25752;SDS011;13600;50.816;4.416;2023-09-19T06:15:14;18.45;;;2.80;;
25752;SDS011;13600;50.816;4.416;2023-09-19T06:17:53;17.25;;;3.00;;
25752;SDS011;13600;50.816;4.416;2023-09-19T06:20:20;15.93;;;3.00;;
25752;SDS011;13600;50.816;4.416;2023-09-19T06:22:47;14.90;;;2.30;;
25752;SDS011;13600;50.816;4.416;2023-09-19T06:25:14;17.15;;;2.80;;
25752;SDS011;13600;50.816;4.416;2023-09-19T06:27:42;20.90;;;3.10;;
25752;SDS011;13600;50.816;4.416;2023-09-19T06:30:09;18.48;;;3.03;;
25752;SDS011;13600;50.816;4.416;2023-09-19T06:32:36;22.17;;;2.17;;
25752;SDS011;13600;50.816;4.416;2023-09-19T06:35:02;24.50;;;2.45;;
25752;SDS011;13600;50.816;4.416;2023-09-19T06:37:32;18.60;;;2.28;;
25752;SDS011;13600;50.816;4.416;2023-09-19T06:39:59;18.63;;;2.53;;
25752;SDS011;13600;50.816;4.416;2023-09-19T06:42:25;16.23;;;2.17;;
25752;SDS011;13600;50.816;4.416;2023-09-19T06:44:51;16.15;;;2.55;;
25752;SDS011;13600;50.816;4.416;2023-09-19T06:47:16;13.40;;;2.65;;
25752;SDS011;13600;50.816;4.416;2023-09-19T06:49:42;20.15;;;2.47;;
25752;SDS011;13600;50.816;4.416;2023-09-19T06:52:11;19.55;;;2.78;;
25752;SDS011;13600;50.816;4.416;2023-09-19T06:54:37;19.13;;;2.60;;
25752;SDS011;13600;50.816;4.416;2023-09-19T06:57:04;19.25;;;2.33;;
25752;SDS011;13600;50.816;4.416;2023-09-19T06:59:34;11.90;;;2.20;;
25752;SDS011;13600;50.816;4.416;2023-09-19T07:02:01;16.60;;;2.40;;
25752;SDS011;13600;50.816;4.416;2023-09-19T07:04:27;14.43;;;2.40;;
25752;SDS011;13600;50.816;4.416;2023-09-19T07:06:53;14.40;;;3.10;;
25752;SDS011;13600;50.816;4.416;2023-09-19T07:09:19;16.77;;;2.63;;
25752;SDS011;13600;50.816;4.416;2023-09-19T07:11:45;15.70;;;2.65;;
25752;SDS011;13600;50.816;4.416;2023-09-19T07:14:10;17.40;;;3.00;;
25752;SDS011;13600;50.816;4.416;2023-09-19T07:16:37;15.23;;;2.67;;
25752;SDS011;13600;50.816;4.416;2023-09-19T07:19:04;21.95;;;3.08;;
25752;SDS011;13600;50.816;4.416;2023-09-19T07:21:30;12.73;;;2.05;;
25752;SDS011;13600;50.816;4.416;2023-09-19T07:23:59;15.20;;;2.67;;
25752;SDS011;13600;50.816;4.416;2023-09-19T07:26:26;14.90;;;2.40;;
25752;SDS011;13600;50.816;4.416;2023-09-19T07:28:53;13.23;;;2.83;;
25752;SDS011;13600;50.816;4.416;2023-09-19T07:31:19;13.07;;;2.67;;
25752;SDS011;13600;50.816;4.416;2023-09-19T07:33:47;11.77;;;2.28;;
25752;SDS011;13600;50.816;4.416;2023-09-19T07:36:14;15.88;;;3.15;;
25752;SDS011;13600;50.816;4.416;2023-09-19T07:38:41;14.60;;;2.97;;
25752;SDS011;13600;50.816;4.416;2023-09-19T07:41:07;13.85;;;2.75;;
25752;SDS011;13600;50.816;4.416;2023-09-19T07:43:34;17.92;;;2.58;;
25752;SDS011;13600;50.816;4.416;2023-09-19T07:46:04;20.85;;;2.83;;
25752;SDS011;13600;50.816;4.416;2023-09-19T07:48:36;17.52;;;2.47;;
25752;SDS011;13600;50.816;4.416;2023-09-19T07:51:05;13.35;;;2.40;;
25752;SDS011;13600;50.816;4.416;2023-09-19T07:53:31;16.85;;;2.78;;
25752;SDS011;13600;50.816;4.416;2023-09-19T07:56:05;17.55;;;3.38;;
25752;SDS011;13600;50.816;4.416;2023-09-19T07:58:32;18.27;;;2.90;;
25752;SDS011;13600;50.816;4.416;2023-09-19T08:01:08;15.10;;;2.45;;
25752;SDS011;13600;50.816;4.416;2023-09-19T08:03:35;16.85;;;2.65;;
25752;SDS011;13600;50.816;4.416;2023-09-19T08:06:08;15.93;;;2.75;;
25752;SDS011;13600;50.816;4.416;2023-09-19T08:08:34;15.30;;;2.72;;
25752;SDS011;13600;50.816;4.416;2023-09-19T08:11:03;19.27;;;2.92;;
25752;SDS011;13600;50.816;4.416;2023-09-19T08:13:38;16.92;;;3.15;;
25752;SDS011;13600;50.816;4.416;2023-09-19T08:16:08;19.10;;;3.08;;
25752;SDS011;13600;50.816;4.416;2023-09-19T08:18:38;16.50;;;2.60;;
25752;SDS011;13600;50.816;4.416;2023-09-19T08:21:07;17.30;;;2.83;;
25752;SDS011;13600;50.816;4.416;2023-09-19T08:23:37;21.52;;;3.15;;
25752;SDS011;13600;50.816;4.416;2023-09-19T08:26:07;20.15;;;3.08;;
25752;SDS011;13600;50.816;4.416;2023-09-19T08:28:36;15.20;;;2.63;;
25752;SDS011;13600;50.816;4.416;2023-09-19T08:31:06;19.20;;;3.10;;
25752;SDS011;13600;50.816;4.416;2023-09-19T08:33:33;14.85;;;2.58;;
25752;SDS011;13600;50.816;4.416;2023-09-19T08:36:01;22.10;;;3.72;;
25752;SDS011;13600;50.816;4.416;2023-09-19T08:38:30;18.98;;;3.05;;
25752;SDS011;13600;50.816;4.416;2023-09-19T08:40:58;15.65;;;2.58;;
25752;SDS011;13600;50.816;4.416;2023-09-19T08:43:26;17.95;;;2.95;;
25752;SDS011;13600;50.816;4.416;2023-09-19T08:45:56;20.77;;;3.17;;
25752;SDS011;13600;50.816;4.416;2023-09-19T08:48:29;14.52;;;2.40;;
25752;SDS011;13600;50.816;4.416;2023-09-19T08:51:00;19.15;;;2.60;;
25752;SDS011;13600;50.816;4.416;2023-09-19T08:56:08;15.77;;;2.20;;
25752;SDS011;13600;50.816;4.416;2023-09-19T08:58:39;14.82;;;2.38;;
25752;SDS011;13600;50.816;4.416;2023-09-19T09:01:17;18.17;;;2.80;;
25752;SDS011;13600;50.816;4.416;2023-09-19T09:03:50;13.57;;;2.40;;
25752;SDS011;13600;50.816;4.416;2023-09-19T09:06:17;14.52;;;2.72;;
25752;SDS011;13600;50.816;4.416;2023-09-19T09:08:48;17.80;;;2.97;;
25752;SDS011;13600;50.816;4.416;2023-09-19T09:11:16;12.23;;;2.35;;
25752;SDS011;13600;50.816;4.416;2023-09-19T09:13:45;11.13;;;1.90;;
25752;SDS011;13600;50.816;4.416;2023-09-19T09:16:12;15.10;;;2.80;;
25752;SDS011;13600;50.816;4.416;2023-09-19T09:18:42;15.82;;;2.30;;
25752;SDS011;13600;50.816;4.416;2023-09-19T09:21:09;12.75;;;2.42;;
25752;SDS011;13600;50.816;4.416;2023-09-19T09:23:35;11.88;;;2.38;;
25752;SDS011;13600;50.816;4.416;2023-09-19T09:26:01;11.45;;;2.35;;
25752;SDS011;13600;50.816;4.416;2023-09-19T09:28:31;12.55;;;2.67;;
25752;SDS011;13600;50.816;4.416;2023-09-19T09:30:59;8.35;;;1.90;;
25752;SDS011;13600;50.816;4.416;2023-09-19T09:33:28;13.15;;;2.08;;
25752;SDS011;13600;50.816;4.416;2023-09-19T09:36:01;11.32;;;2.22;;
25752;SDS011;13600;50.816;4.416;2023-09-19T09:38:49;11.20;;;2.17;;
25752;SDS011;13600;50.816;4.416;2023-09-19T09:41:15;10.25;;;2.28;;
25752;SDS011;13600;50.816;4.416;2023-09-19T09:43:52;12.10;;;2.15;;
25752;SDS011;13600;50.816;4.416;2023-09-19T09:46:18;14.32;;;2.53;;
25752;SDS011;13600;50.816;4.416;2023-09-19T09:48:57;9.30;;;1.90;;
25752;SDS011;13600;50.816;4.416;2023-09-19T09:51:39;14.75;;;2.35;;
25752;SDS011;13600;50.816;4.416;2023-09-19T09:54:11;11.23;;;2.28;;
25752;SDS011;13600;50.816;4.416;2023-09-19T09:57:00;9.80;;;2.00;;
25752;SDS011;13600;50.816;4.416;2023-09-19T09:59:48;7.20;;;2.10;;
25752;SDS011;13600;50.816;4.416;2023-09-19T10:02:16;11.77;;;1.88;;
25752;SDS011;13600;50.816;4.416;2023-09-19T10:04:49;10.75;;;1.80;;
25752;SDS011;13600;50.816;4.416;2023-09-19T10:07:35;9.18;;;1.90;;
25752;SDS011;13600;50.816;4.416;2023-09-19T10:10:07;7.03;;;1.70;;
25752;SDS011;13600;50.816;4.416;2023-09-19T10:12:48;10.60;;;2.33;;
25752;SDS011;13600;50.816;4.416;2023-09-19T10:15:14;9.43;;;1.67;;
25752;SDS011;13600;50.816;4.416;2023-09-19T10:17:42;11.65;;;2.30;;
25752;SDS011;13600;50.816;4.416;2023-09-19T10:20:11;10.55;;;1.88;;
25752;SDS011;13600;50.816;4.416;2023-09-19T10:23:09;14.68;;;2.03;;
25752;SDS011;13600;50.816;4.416;2023-09-19T10:25:39;8.30;;;1.40;;
25752;SDS011;13600;50.816;4.416;2023-09-19T10:28:07;7.90;;;1.88;;
25752;SDS011;13600;50.816;4.416;2023-09-19T10:30:40;12.63;;;2.03;;
25752;SDS011;13600;50.816;4.416;2023-09-19T10:33:13;7.57;;;1.67;;
25752;SDS011;13600;50.816;4.416;2023-09-19T10:35:44;6.20;;;1.52;;
25752;SDS011;13600;50.816;4.416;2023-09-19T10:38:12;10.20;;;1.83;;
25752;SDS011;13600;50.816;4.416;2023-09-19T10:40:39;5.88;;;1.10;;
25752;SDS011;13600;50.816;4.416;2023-09-19T10:43:11;6.00;;;1.30;;
25752;SDS011;13600;50.816;4.416;2023-09-19T10:45:38;8.63;;;1.73;;
25752;SDS011;13600;50.816;4.416;2023-09-19T10:48:08;9.00;;;1.40;;
25752;SDS011;13600;50.816;4.416;2023-09-19T10:50:55;8.27;;;1.60;;
25752;SDS011;13600;50.816;4.416;2023-09-19T10:53:39;7.50;;;1.63;;
25752;SDS011;13600;50.816;4.416;2023-09-19T10:56:10;8.02;;;1.45;;
25752;SDS011;13600;50.816;4.416;2023-09-19T10:58:43;7.72;;;1.17;;
25752;SDS011;13600;50.816;4.416;2023-09-19T11:01:11;4.95;;;1.35;;
25752;SDS011;13600;50.816;4.416;2023-09-19T11:03:41;8.68;;;1.75;;
25752;SDS011;13600;50.816;4.416;2023-09-19T11:06:13;3.65;;;1.25;;
25752;SDS011;13600;50.816;4.416;2023-09-19T11:11:41;5.05;;;1.10;;
25752;SDS011;13600;50.816;4.416;2023-09-19T11:14:41;6.07;;;1.20;;
25752;SDS011;13600;50.816;4.416;2023-09-19T11:49:34;4.60;;;1.00;;
25752;SDS011;13600;50.816;4.416;2023-09-19T11:52:05;9.23;;;1.23;;
25752;SDS011;13600;50.816;4.416;2023-09-19T11:54:33;11.55;;;1.20;;
25752;SDS011;13600;50.816;4.416;2023-09-19T11:57:01;7.25;;;1.15;;
25752;SDS011;13600;50.816;4.416;2023-09-19T11:59:29;8.50;;;1.30;;
25752;SDS011;13600;50.816;4.416;2023-09-19T12:04:36;5.53;;;0.93;;
25752;SDS011;13600;50.816;4.416;2023-09-19T12:07:12;8.73;;;1.20;;
25752;SDS011;13600;50.816;4.416;2023-09-19T12:09:42;7.85;;;1.30;;
25752;SDS011;13600;50.816;4.416;2023-09-19T12:12:19;8.75;;;1.20;;
25752;SDS011;13600;50.816;4.416;2023-09-19T12:14:49;6.45;;;1.20;;
25752;SDS011;13600;50.816;4.416;2023-09-19T12:17:16;9.20;;;1.35;;
25752;SDS011;13600;50.816;4.416;2023-09-19T12:19:53;42.03;;;1.58;;
25752;SDS011;13600;50.816;4.416;2023-09-19T12:22:20;7.45;;;1.50;;
25752;SDS011;13600;50.816;4.416;2023-09-19T12:24:46;8.35;;;1.23;;
25752;SDS011;13600;50.816;4.416;2023-09-19T12:27:13;4.10;;;0.95;;
25752;SDS011;13600;50.816;4.416;2023-09-19T12:29:42;4.28;;;1.13;;
25752;SDS011;13600;50.816;4.416;2023-09-19T12:32:14;10.48;;;1.23;;
25752;SDS011;13600;50.816;4.416;2023-09-19T12:34:42;11.70;;;1.00;;
25752;SDS011;13600;50.816;4.416;2023-09-19T12:37:16;4.22;;;0.93;;
25752;SDS011;13600;50.816;4.416;2023-09-19T12:39:49;7.30;;;1.00;;
25752;SDS011;13600;50.816;4.416;2023-09-19T12:42:25;7.60;;;1.15;;
25752;SDS011;13600;50.816;4.416;2023-09-19T12:44:58;4.63;;;1.00;;
25752;SDS011;13600;50.816;4.416;2023-09-19T12:47:26;5.53;;;1.08;;
25752;SDS011;13600;50.816;4.416;2023-09-19T12:52:38;8.85;;;1.20;;
25752;SDS011;13600;50.816;4.416;2023-09-19T12:55:06;8.70;;;1.25;;
25752;SDS011;13600;50.816;4.416;2023-09-19T12:57:34;6.70;;;1.40;;
25752;SDS011;13600;50.816;4.416;2023-09-19T13:00:03;4.88;;;1.08;;
25752;SDS011;13600;50.816;4.416;2023-09-19T13:02:31;6.70;;;1.20;;
25752;SDS011;13600;50.816;4.416;2023-09-19T13:04:57;6.30;;;1.15;;
25752;SDS011;13600;50.816;4.416;2023-09-19T13:07:41;9.85;;;1.50;;
25752;SDS011;13600;50.816;4.416;2023-09-19T13:10:12;10.25;;;1.50;;
25752;SDS011;13600;50.816;4.416;2023-09-19T13:12:41;5.75;;;1.00;;
25752;SDS011;13600;50.816;4.416;2023-09-19T13:15:10;6.55;;;1.00;;
25752;SDS011;13600;50.816;4.416;2023-09-19T13:17:48;4.63;;;1.27;;
25752;SDS011;13600;50.816;4.416;2023-09-19T13:20:26;4.97;;;0.85;;
25752;SDS011;13600;50.816;4.416;2023-09-19T13:22:53;7.70;;;1.10;;
25752;SDS011;13600;50.816;4.416;2023-09-19T13:25:23;4.32;;;1.00;;
25752;SDS011;13600;50.816;4.416;2023-09-19T13:27:51;6.38;;;1.25;;
25752;SDS011;13600;50.816;4.416;2023-09-19T13:30:20;10.30;;;1.25;;
25752;SDS011;13600;50.816;4.416;2023-09-19T13:32:47;6.72;;;1.33;;
25752;SDS011;13600;50.816;4.416;2023-09-19T13:35:14;6.65;;;1.10;;
25752;SDS011;13600;50.816;4.416;2023-09-19T13:37:41;6.15;;;1.10;;
25752;SDS011;13600;50.816;4.416;2023-09-19T13:40:08;5.35;;;1.17;;
25752;SDS011;13600;50.816;4.416;2023-09-19T13:42:34;8.02;;;1.27;;
25752;SDS011;13600;50.816;4.416;2023-09-19T13:45:02;7.35;;;1.10;;
25752;SDS011;13600;50.816;4.416;2023-09-19T13:47:32;10.85;;;1.30;;
25752;SDS011;13600;50.816;4.416;2023-09-19T13:49:58;10.73;;;1.08;;
25752;SDS011;13600;50.816;4.416;2023-09-19T13:52:25;5.82;;;1.48;;
25752;SDS011;13600;50.816;4.416;2023-09-19T13:54:53;4.07;;;0.95;;
25752;SDS011;13600;50.816;4.416;2023-09-19T13:57:22;7.00;;;1.20;;
25752;SDS011;13600;50.816;4.416;2023-09-19T13:59:49;5.80;;;1.48;;
25752;SDS011;13600;50.816;4.416;2023-09-19T14:02:17;6.97;;;1.80;;
25752;SDS011;13600;50.816;4.416;2023-09-19T14:04:44;6.80;;;1.23;;
25752;SDS011;13600;50.816;4.416;2023-09-19T14:07:11;6.63;;;1.30;;
25752;SDS011;13600;50.816;4.416;2023-09-19T14:09:37;6.85;;;1.10;;
25752;SDS011;13600;50.816;4.416;2023-09-19T14:12:03;5.72;;;1.20;;
25752;SDS011;13600;50.816;4.416;2023-09-19T14:14:28;6.22;;;1.35;;
25752;SDS011;13600;50.816;4.416;2023-09-19T14:16:55;8.52;;;1.60;;
25752;SDS011;13600;50.816;4.416;2023-09-19T14:19:21;12.32;;;1.20;;
25752;SDS011;13600;50.816;4.416;2023-09-19T14:21:46;7.85;;;1.20;;
25752;SDS011;13600;50.816;4.416;2023-09-19T14:24:18;7.90;;;1.40;;
25752;SDS011;13600;50.816;4.416;2023-09-19T14:26:44;5.90;;;1.40;;
25752;SDS011;13600;50.816;4.416;2023-09-19T14:29:10;9.13;;;1.42;;
25752;SDS011;13600;50.816;4.416;2023-09-19T14:31:37;7.00;;;1.38;;
25752;SDS011;13600;50.816;4.416;2023-09-19T14:34:05;8.73;;;1.50;;
25752;SDS011;13600;50.816;4.416;2023-09-19T14:36:31;8.20;;;1.40;;
25752;SDS011;13600;50.816;4.416;2023-09-19T14:38:59;8.90;;;1.40;;
25752;SDS011;13600;50.816;4.416;2023-09-19T14:41:25;8.88;;;1.48;;
25752;SDS011;13600;50.816;4.416;2023-09-19T14:43:51;15.38;;;1.50;;
25752;SDS011;13600;50.816;4.416;2023-09-19T14:46:17;7.68;;;1.40;;
25752;SDS011;13600;50.816;4.416;2023-09-19T14:48:44;10.52;;;1.60;;
25752;SDS011;13600;50.816;4.416;2023-09-19T14:51:13;10.18;;;1.70;;
25752;SDS011;13600;50.816;4.416;2023-09-19T14:53:40;11.23;;;2.05;;
25752;SDS011;13600;50.816;4.416;2023-09-19T14:56:10;6.32;;;1.30;;
25752;SDS011;13600;50.816;4.416;2023-09-19T14:58:36;9.30;;;1.52;;
25752;SDS011;13600;50.816;4.416;2023-09-19T15:01:11;13.45;;;1.70;;
25752;SDS011;13600;50.816;4.416;2023-09-19T15:03:40;7.80;;;2.03;;
25752;SDS011;13600;50.816;4.416;2023-09-19T15:06:09;6.32;;;1.90;;
25752;SDS011;13600;50.816;4.416;2023-09-19T15:08:39;9.90;;;1.60;;
25752;SDS011;13600;50.816;4.416;2023-09-19T15:11:06;12.38;;;1.92;;
25752;SDS011;13600;50.816;4.416;2023-09-19T15:13:36;6.57;;;1.35;;
25752;SDS011;13600;50.816;4.416;2023-09-19T15:16:02;10.63;;;2.00;;
25752;SDS011;13600;50.816;4.416;2023-09-19T15:18:30;10.93;;;1.92;;
25752;SDS011;13600;50.816;4.416;2023-09-19T15:21:00;11.50;;;1.85;;
25752;SDS011;13600;50.816;4.416;2023-09-19T15:23:28;8.57;;;1.45;;
25752;SDS011;13600;50.816;4.416;2023-09-19T15:25:56;6.90;;;1.67;;
25752;SDS011;13600;50.816;4.416;2023-09-19T15:28:22;7.70;;;1.70;;
25752;SDS011;13600;50.816;4.416;2023-09-19T15:30:48;12.02;;;1.60;;
25752;SDS011;13600;50.816;4.416;2023-09-19T15:33:14;7.35;;;1.67;;
25752;SDS011;13600;50.816;4.416;2023-09-19T15:35:40;9.88;;;1.63;;
25752;SDS011;13600;50.816;4.416;2023-09-19T15:38:07;7.47;;;1.40;;
25752;SDS011;13600;50.816;4.416;2023-09-19T15:40:32;8.30;;;1.63;;
25752;SDS011;13600;50.816;4.416;2023-09-19T15:43:01;9.60;;;1.63;;
25752;SDS011;13600;50.816;4.416;2023-09-19T15:45:28;9.10;;;1.73;;
25752;SDS011;13600;50.816;4.416;2023-09-19T15:47:53;8.38;;;1.70;;
25752;SDS011;13600;50.816;4.416;2023-09-19T15:50:21;8.30;;;1.27;;
25752;SDS011;13600;50.816;4.416;2023-09-19T15:52:48;6.97;;;1.63;;
25752;SDS011;13600;50.816;4.416;2023-09-19T15:55:19;7.38;;;1.50;;
25752;SDS011;13600;50.816;4.416;2023-09-19T15:57:45;7.88;;;1.40;;
25752;SDS011;13600;50.816;4.416;2023-09-19T16:00:11;18.90;;;1.83;;